Time;durP1;ratioP1;P1;durP2;ratioP2;P2;SDS_P1;SDS_P2;PMS_P1;PMS_P2;Temp;Humidity;BMP_temperature;BMP_pressure;BME280_temperature;BME280_humidity;BME280_pressure;Samples;Min_cycle;Max_cycle;Signal;HPM_P1;HPM_P2
2023/12/12 00:00:01;;;;;;;;;;;;;;;20.14;47.75;99957.53;2098062;28;1946;-65
2023/12/12 00:01:02;;;;;;;;;;;;;;;20.14;47.79;99963.28;2098007;28;7545;-64
2023/12/12 00:02:04;;;;;;;;;;;;;;;20.14;47.71;99951.78;2103069;28;1649;-64
2023/12/12 00:03:06;;;;;;;;;;;;;;;20.15;47.82;99956.13;2099575;28;1546;-64
2023/12/12 00:04:07;;;;;;;;;;;;;;;20.14;47.81;99969.03;2097554;28;1855;-65
2023/12/12 00:05:08;;;;;;;;;;;;;;;20.13;47.82;99961.81;2100436;28;1600;-65
2023/12/12 00:06:10;;;;;;;;;;;;;;;20.12;47.69;99966.81;2100896;28;2009;-65
2023/12/12 00:07:11;;;;;;;;;;;;;;;20.13;47.72;99967.56;2099894;28;2315;-64
2023/12/12 00:08:13;;;;;;;;;;;;;;;20.13;47.77;99967.56;2097181;28;2017;-65
2023/12/12 00:09:14;;;;;;;;;;;;;;;20.12;47.86;99971.84;2097945;28;1998;-65
2023/12/12 00:10:16;;;;;;;;;;;;;;;20.12;47.71;99975.44;2099642;28;1961;-64
2023/12/12 00:11:17;;;;;;;;;;;;;;;20.13;47.75;99979.06;2096288;28;1990;-65
2023/12/12 00:12:18;;;;;;;;;;;;;;;20.12;47.66;99977.59;2099647;28;1887;-65
2023/12/12 00:13:20;;;;;;;;;;;;;;;20.12;47.83;99980.47;2099220;28;1932;-65
2023/12/12 00:14:21;;;;;;;;;;;;;;;20.11;47.75;99976.09;2099707;28;1819;-64
2023/12/12 00:15:23;;;;;;;;;;;;;;;20.12;47.58;99974.72;2101664;28;1808;-65
2023/12/12 00:16:24;;;;;;;;;;;;;;;20.11;47.66;99978.97;2100928;28;2142;-64
2023/12/12 00:17:25;;;;;;;;;;;;;;;20.11;47.60;99985.47;2099624;28;1925;-64
2023/12/12 00:18:27;;;;;;;;;;;;;;;20.11;47.60;99981.84;2100679;28;2110;-64
2023/12/12 00:19:28;;;;;;;;;;;;;;;20.11;47.63;99976.09;2098353;28;1930;-65
2023/12/12 00:20:30;;;;;;;;;;;;;;;20.10;47.70;99989.75;2100487;28;1547;-64
2023/12/12 00:21:31;;;;;;;;;;;;;;;20.09;47.67;99982.53;2098614;28;1617;-65
2023/12/12 00:22:33;;;;;;;;;;;;;;;20.09;47.51;99994.78;2096936;28;1592;-65
2023/12/12 00:23:34;;;;;;;;;;;;;;;20.08;47.60;99990.41;2102111;28;1990;-65
2023/12/12 00:24:35;;;;;;;;;;;;;;;20.08;47.57;99983.94;2100081;28;1972;-65
2023/12/12 00:25:37;;;;;;;;;;;;;;;20.08;47.50;99990.41;2101550;28;2170;-65
2023/12/12 00:26:38;;;;;;;;;;;;;;;20.08;47.57;99989.69;2100493;28;1861;-64
2023/12/12 00:27:40;;;;;;;;;;;;;;;20.08;47.45;99990.41;2102542;28;2017;-65
2023/12/12 00:28:41;;;;;;;;;;;;;;;20.08;47.54;99986.81;2098020;28;1997;-65
2023/12/12 00:29:45;;;;;;;;;;;;;;;20.08;47.53;99995.44;2098441;28;2040;-64
2023/12/12 00:30:46;;;;;;;;;;;;;;;20.08;47.73;99992.56;2099419;28;5975;-65
2023/12/12 00:31:48;;;;;;;;;;;;;;;20.07;47.56;99994.69;2101002;28;1702;-65
2023/12/12 00:32:49;;;;;;;;;;;;;;;20.07;47.50;99996.84;2100488;28;2058;-65
2023/12/12 00:33:50;;;;;;;;;;;;;;;20.06;47.53;99993.22;2098560;28;1529;-65
2023/12/12 00:34:52;;;;;;;;;;;;;;;20.06;47.47;99992.47;2101448;28;1618;-64
2023/12/12 00:35:54;;;;;;;;;;;;;;;20.07;47.45;100002.59;2103456;28;1938;-65
2023/12/12 00:36:55;;;;;;;;;;;;;;;20.07;47.45;99997.56;2100477;28;1950;-65
2023/12/12 00:37:57;;;;;;;;;;;;;;;20.07;47.38;99999.72;2102174;28;2190;-65
2023/12/12 00:38:58;;;;;;;;;;;;;;;20.07;47.65;100005.47;2098663;28;1632;-65
2023/12/12 00:40:00;;;;;;;;;;;;;;;20.06;47.49;100004.72;2096693;28;1800;-65
2023/12/12 00:41:01;;;;;;;;;;;;;;;20.06;47.53;100010.47;2097323;28;1937;-65
2023/12/12 00:42:03;;;;;;;;;;;;;;;20.06;47.46;100009.72;2099457;28;2087;-65
2023/12/12 00:43:04;;;;;;;;;;;;;;;20.05;47.48;100009.00;2098942;28;2059;-65
2023/12/12 00:44:06;;;;;;;;;;;;;;;20.06;47.45;100009.72;2096862;28;1968;-64
2023/12/12 00:45:07;;;;;;;;;;;;;;;20.06;47.38;100015.47;2097023;28;2231;-65
2023/12/12 00:46:10;;;;;;;;;;;;;;;20.06;47.60;100010.47;2096326;28;2000;-65
2023/12/12 00:47:11;;;;;;;;;;;;;;;20.06;47.56;100009.72;2098354;28;1946;-65
2023/12/12 00:48:13;;;;;;;;;;;;;;;20.04;47.56;100007.53;2102020;28;1510;-65
2023/12/12 00:49:14;;;;;;;;;;;;;;;20.04;47.49;100004.66;2101074;28;1743;-65
2023/12/12 00:50:16;;;;;;;;;;;;;;;20.04;47.51;100013.28;2100889;28;1997;-65
2023/12/12 00:51:17;;;;;;;;;;;;;;;20.04;47.60;100007.53;2099081;28;1884;-65
2023/12/12 00:52:19;;;;;;;;;;;;;;;20.05;47.46;100014.00;2097925;28;1977;-65
2023/12/12 00:53:21;;;;;;;;;;;;;;;20.04;47.39;100013.28;2100558;28;2037;-65
2023/12/12 00:54:22;;;;;;;;;;;;;;;20.03;47.43;100011.78;2100005;28;1879;-65
2023/12/12 00:55:23;;;;;;;;;;;;;;;20.04;47.34;100024.78;2099711;28;1909;-65
2023/12/12 00:56:25;;;;;;;;;;;;;;;20.02;47.40;100009.59;2099317;28;1913;-65
2023/12/12 00:57:26;;;;;;;;;;;;;;;20.02;47.32;100016.09;2098020;28;2159;-65
2023/12/12 00:58:28;;;;;;;;;;;;;;;20.03;47.44;100016.81;2097362;28;2148;-65
2023/12/12 00:59:29;;;;;;;;;;;;;;;20.01;47.39;100017.47;2102465;28;1594;-65
2023/12/12 01:00:31;;;;;;;;;;;;;;;20.02;47.38;100021.84;2097892;28;6343;-64
2023/12/12 01:01:32;;;;;;;;;;;;;;;20.02;47.41;100027.59;2096491;28;1870;-65
2023/12/12 01:02:34;;;;;;;;;;;;;;;20.03;47.34;100028.31;2099191;28;1969;-65
2023/12/12 01:03:35;;;;;;;;;;;;;;;20.02;47.33;100026.81;2098186;28;1881;-64
2023/12/12 01:04:37;;;;;;;;;;;;;;;20.02;47.29;100035.44;2099805;28;1956;-65
2023/12/12 01:05:38;;;;;;;;;;;;;;;20.00;47.36;100024.63;2098096;28;2006;-65
2023/12/12 01:06:40;;;;;;;;;;;;;;;20.01;47.37;100023.22;2099514;28;1988;-65
2023/12/12 01:07:41;;;;;;;;;;;;;;;20.00;47.34;100033.25;2098743;28;2046;-65
2023/12/12 01:08:43;;;;;;;;;;;;;;;20.01;47.34;100034.72;2100273;28;1807;-64
2023/12/12 01:09:44;;;;;;;;;;;;;;;20.01;47.39;100033.97;2099453;28;1947;-65
2023/12/12 01:10:45;;;;;;;;;;;;;;;20.00;47.37;100036.13;2100850;28;1966;-64
2023/12/12 01:11:47;;;;;;;;;;;;;;;20.01;47.31;100031.84;2098831;28;1922;-65
2023/12/12 01:12:48;;;;;;;;;;;;;;;20.02;47.23;100038.31;2099528;28;2357;-65
2023/12/12 01:13:50;;;;;;;;;;;;;;;19.99;47.32;100040.38;2099190;28;1930;-65
2023/12/12 01:14:58;;;;;;;;;;;;;;;19.98;47.20;100033.19;2099846;28;1969;-65
2023/12/12 01:15:59;;;;;;;;;;;;;;;19.99;47.24;100034.63;2098091;28;1941;-65
2023/12/12 01:17:03;;;;;;;;;;;;;;;20.00;47.39;100038.28;2097769;28;1952;-64
2023/12/12 01:18:05;;;;;;;;;;;;;;;20.00;47.21;100036.13;2099236;28;1921;-65
2023/12/12 01:19:06;;;;;;;;;;;;;;;19.99;47.40;100043.25;2099187;28;1550;-65
2023/12/12 01:20:08;;;;;;;;;;;;;;;19.98;47.38;100044.69;2099331;28;1911;-65
2023/12/12 01:21:10;;;;;;;;;;;;;;;19.99;47.28;100049.00;2101959;28;1793;-65
2023/12/12 01:22:11;;;;;;;;;;;;;;;19.98;47.34;100047.53;2098354;28;2040;-64
2023/12/12 01:23:12;;;;;;;;;;;;;;;19.98;47.38;100050.41;2099984;28;1890;-65
2023/12/12 01:24:14;;;;;;;;;;;;;;;19.98;47.24;100047.53;2098680;28;1910;-64
2023/12/12 01:25:15;;;;;;;;;;;;;;;19.98;47.15;100053.28;2099686;28;1630;-65
2023/12/12 01:26:17;;;;;;;;;;;;;;;19.99;47.20;100051.16;2099071;28;1961;-64
2023/12/12 01:27:19;;;;;;;;;;;;;;;19.97;47.18;100048.94;2099878;28;1993;-65
2023/12/12 01:28:20;;;;;;;;;;;;;;;19.97;47.31;100060.44;2097605;28;1941;-65
2023/12/12 01:29:22;;;;;;;;;;;;;;;19.98;47.31;100061.19;2100753;28;2027;-64
2023/12/12 01:30:23;;;;;;;;;;;;;;;19.97;47.17;100069.03;2100945;28;7560;-65
2023/12/12 01:31:25;;;;;;;;;;;;;;;19.97;47.17;100056.81;2099767;28;1769;-65
2023/12/12 01:32:26;;;;;;;;;;;;;;;19.97;47.31;100071.91;2099909;28;2001;-65
2023/12/12 01:33:28;;;;;;;;;;;;;;;19.96;47.41;100070.47;2098426;28;1977;-65
2023/12/12 01:34:29;;;;;;;;;;;;;;;19.97;47.24;100071.19;2099802;28;1933;-65
2023/12/12 01:35:31;;;;;;;;;;;;;;;19.97;47.19;100077.66;2102129;28;1586;-65
2023/12/12 01:36:32;;;;;;;;;;;;;;;19.97;47.13;100071.91;2098618;28;1866;-65
2023/12/12 01:37:33;;;;;;;;;;;;;;;19.96;47.43;100070.47;2099791;28;1906;-65
2023/12/12 01:38:35;;;;;;;;;;;;;;;19.96;47.25;100076.22;2099277;28;1981;-65
2023/12/12 01:39:37;;;;;;;;;;;;;;;19.96;47.20;100076.22;2096624;28;2154;-64
2023/12/12 01:40:38;;;;;;;;;;;;;;;19.96;47.18;100076.22;2100856;28;1800;-64
2023/12/12 01:41:40;;;;;;;;;;;;;;;19.96;47.14;100081.97;2100406;28;1917;-64
2023/12/12 01:42:41;;;;;;;;;;;;;;;19.95;47.26;100071.88;2099366;28;1808;-65
2023/12/12 01:43:43;;;;;;;;;;;;;;;19.97;47.19;100082.69;2100545;28;1701;-65
2023/12/12 01:44:44;;;;;;;;;;;;;;;19.95;47.14;100077.63;2099573;28;1957;-64
2023/12/12 01:45:45;;;;;;;;;;;;;;;19.97;47.18;100079.81;2099269;28;1990;-65
2023/12/12 01:46:47;;;;;;;;;;;;;;;19.96;47.05;100081.97;2098523;28;2330;-64
2023/12/12 01:47:49;;;;;;;;;;;;;;;19.96;47.23;100075.47;2102004;28;1981;-65
2023/12/12 01:48:50;;;;;;;;;;;;;;;19.97;47.19;100085.56;2102013;28;1958;-65
2023/12/12 01:49:52;;;;;;;;;;;;;;;19.96;47.07;100086.97;2101999;28;1619;-64
2023/12/12 01:50:53;;;;;;;;;;;;;;;19.96;47.18;100081.22;2102036;28;1494;-65
2023/12/12 01:51:55;;;;;;;;;;;;;;;19.96;47.15;100084.81;2100626;28;1812;-65
2023/12/12 01:52:56;;;;;;;;;;;;;;;19.95;47.24;100089.13;2101296;28;1877;-65
2023/12/12 01:53:58;;;;;;;;;;;;;;;19.95;47.31;100086.25;2099036;28;1522;-65
2023/12/12 01:54:59;;;;;;;;;;;;;;;19.94;47.12;100087.63;2098297;28;1846;-65
2023/12/12 01:56:01;;;;;;;;;;;;;;;19.95;47.31;100085.47;2092340;28;2021;-65
2023/12/12 01:57:03;;;;;;;;;;;;;;;19.94;47.07;100084.03;2091407;28;2326;-65
2023/12/12 01:58:04;;;;;;;;;;;;;;;19.94;47.01;100084.75;2100512;28;2290;-65
2023/12/12 01:59:06;;;;;;;;;;;;;;;19.94;47.09;100087.63;2101969;28;1582;-65
2023/12/12 02:00:07;;;;;;;;;;;;;;;19.94;47.20;100084.75;2097753;28;6241;-65
2023/12/12 02:01:08;;;;;;;;;;;;;;;19.95;47.05;100089.13;2102428;28;2064;-65
2023/12/12 02:02:10;;;;;;;;;;;;;;;19.93;47.20;100082.53;2098665;28;1713;-64
2023/12/12 02:03:12;;;;;;;;;;;;;;;19.93;47.18;100089.03;2100576;28;1874;-65
2023/12/12 02:04:13;;;;;;;;;;;;;;;19.92;47.18;100093.28;2098653;28;1391;-64
2023/12/12 02:05:16;;;;;;;;;;;;;;;19.93;47.11;100089.03;2098067;28;2266;-65
2023/12/12 02:06:22;;;;;;;;;;;;;;;19.93;47.20;100094.78;2100235;28;1892;-64
2023/12/12 02:07:23;;;;;;;;;;;;;;;19.94;47.24;100090.50;2099450;28;1963;-65
2023/12/12 02:08:25;;;;;;;;;;;;;;;19.93;47.18;100094.78;2100228;28;2098;-65
2023/12/12 02:09:26;;;;;;;;;;;;;;;19.92;47.22;100089.69;2098312;28;2025;-65
2023/12/12 02:10:28;;;;;;;;;;;;;;;19.93;47.08;100094.03;2097249;28;1851;-65
2023/12/12 02:11:29;;;;;;;;;;;;;;;19.92;47.03;100087.56;2098673;28;2115;-65
2023/12/12 02:12:31;;;;;;;;;;;;;;;19.93;47.17;100097.66;2095663;28;1951;-65
2023/12/12 02:13:32;;;;;;;;;;;;;;;19.92;47.07;100087.56;2100617;28;1673;-65
2023/12/12 02:14:37;;;;;;;;;;;;;;;19.92;47.20;100087.56;2096791;28;1883;-65
2023/12/12 02:15:38;;;;;;;;;;;;;;;19.92;47.06;100087.56;2098394;28;2349;-65
2023/12/12 02:16:39;;;;;;;;;;;;;;;19.91;47.19;100091.84;2099743;28;2179;-65
2023/12/12 02:17:41;;;;;;;;;;;;;;;19.91;47.12;100088.97;2097789;28;2074;-64
2023/12/12 02:18:42;;;;;;;;;;;;;;;19.91;47.15;100091.84;2096430;28;2028;-65
2023/12/12 02:19:44;;;;;;;;;;;;;;;19.92;47.14;100092.56;2099686;28;1928;-65
2023/12/12 02:20:45;;;;;;;;;;;;;;;19.90;46.99;100096.09;2096803;28;1922;-65
2023/12/12 02:21:47;;;;;;;;;;;;;;;19.90;47.14;100096.09;2099583;28;1411;-65
2023/12/12 02:22:48;;;;;;;;;;;;;;;19.89;47.12;100091.75;2098681;28;2294;-65
2023/12/12 02:23:50;;;;;;;;;;;;;;;19.90;47.08;100084.59;2099601;28;2014;-65
2023/12/12 02:24:51;;;;;;;;;;;;;;;19.90;47.25;100081.00;2098610;28;1918;-65
2023/12/12 02:25:53;;;;;;;;;;;;;;;19.89;47.21;100088.88;2100464;28;1942;-65
2023/12/12 02:26:54;;;;;;;;;;;;;;;19.91;47.20;100080.34;2098204;28;1935;-65
2023/12/12 02:27:56;;;;;;;;;;;;;;;19.90;47.08;100087.47;2098263;28;1922;-65
2023/12/12 02:28:57;;;;;;;;;;;;;;;19.90;47.18;100087.47;2098178;28;1924;-64
2023/12/12 02:29:59;;;;;;;;;;;;;;;19.89;47.18;100088.88;2099603;28;1756;-64
2023/12/12 02:31:00;;;;;;;;;;;;;;;19.90;47.18;100090.34;2095170;28;6166;-65
2023/12/12 02:32:01;;;;;;;;;;;;;;;19.89;47.03;100083.13;2098593;28;1709;-65
2023/12/12 02:33:04;;;;;;;;;;;;;;;19.89;47.00;100080.28;2099900;28;1959;-65
2023/12/12 02:34:05;;;;;;;;;;;;;;;19.88;46.96;100090.28;2099710;28;1562;-65
2023/12/12 02:35:07;;;;;;;;;;;;;;;19.88;47.10;100088.16;2101311;28;1574;-65
2023/12/12 02:36:09;;;;;;;;;;;;;;;19.89;46.98;100094.63;2097785;28;2078;-65
2023/12/12 02:37:10;;;;;;;;;;;;;;;19.87;47.11;100095.28;2095882;28;1988;-65
2023/12/12 02:38:13;;;;;;;;;;;;;;;19.88;46.93;100087.41;2097205;28;1500;-65
2023/12/12 02:39:15;;;;;;;;;;;;;;;19.87;47.14;100094.56;2098723;28;1558;-65
2023/12/12 02:40:16;;;;;;;;;;;;;;;19.88;47.00;100093.91;2099502;28;1956;-65
2023/12/12 02:41:18;;;;;;;;;;;;;;;19.87;46.96;100091.69;2102268;28;1534;-65
2023/12/12 02:42:19;;;;;;;;;;;;;;;19.87;46.97;100092.41;2100088;28;1823;-65
2023/12/12 02:43:21;;;;;;;;;;;;;;;19.86;46.98;100090.97;2098569;28;2077;-65
2023/12/12 02:44:22;;;;;;;;;;;;;;;19.87;47.13;100091.69;2096621;28;1873;-65
2023/12/12 02:45:24;;;;;;;;;;;;;;;19.87;47.02;100097.44;2098206;28;2022;-65
2023/12/12 02:46:25;;;;;;;;;;;;;;;19.88;47.01;100096.03;2097896;28;1891;-65
2023/12/12 02:47:27;;;;;;;;;;;;;;;19.88;47.16;100101.75;2097200;28;1938;-65
2023/12/12 02:48:28;;;;;;;;;;;;;;;19.87;47.12;100094.56;2097804;28;1926;-65
2023/12/12 02:49:30;;;;;;;;;;;;;;;19.87;47.04;100100.31;2097557;28;1931;-64
2023/12/12 02:50:31;;;;;;;;;;;;;;;19.87;46.99;100098.16;2096840;28;2056;-64
2023/12/12 02:51:33;;;;;;;;;;;;;;;19.87;46.89;100100.31;2098770;28;1539;-64
2023/12/12 02:52:34;;;;;;;;;;;;;;;19.88;46.91;100104.63;2097460;28;1863;-65
2023/12/12 02:53:35;;;;;;;;;;;;;;;19.87;46.89;100097.44;2099431;28;1895;-66
2023/12/12 02:54:37;;;;;;;;;;;;;;;19.87;46.93;100097.44;2097719;28;1992;-65
2023/12/12 02:55:38;;;;;;;;;;;;;;;19.86;46.93;100099.56;2096522;28;1913;-65
2023/12/12 02:56:40;;;;;;;;;;;;;;;19.87;46.99;100094.56;2101725;28;1957;-65
2023/12/12 02:57:41;;;;;;;;;;;;;;;19.87;46.99;100101.03;2097301;28;1982;-64
2023/12/12 02:58:42;;;;;;;;;;;;;;;19.88;46.98;100098.91;2098451;28;2045;-65
2023/12/12 02:59:44;;;;;;;;;;;;;;;19.88;46.91;100101.75;2096107;28;1946;-65
2023/12/12 03:00:46;;;;;;;;;;;;;;;19.89;47.05;100106.13;2098167;28;6420;-65
2023/12/12 03:01:48;;;;;;;;;;;;;;;19.88;46.76;100102.53;2100303;28;1645;-65
2023/12/12 03:02:49;;;;;;;;;;;;;;;19.89;46.78;100106.13;2100962;28;1812;-65
2023/12/12 03:03:50;;;;;;;;;;;;;;;19.89;46.96;100106.13;2099479;28;2015;-64
2023/12/12 03:04:52;;;;;;;;;;;;;;;19.89;46.91;100106.13;2098528;28;2136;-64
2023/12/12 03:05:54;;;;;;;;;;;;;;;19.90;46.81;100106.84;2099687;28;1973;-64
2023/12/12 03:06:55;;;;;;;;;;;;;;;19.89;46.89;100106.13;2097119;28;1886;-64
2023/12/12 03:07:56;;;;;;;;;;;;;;;19.90;46.92;100107.59;2096372;28;2165;-64
2023/12/12 03:08:58;;;;;;;;;;;;;;;19.90;46.96;100107.59;2101093;28;1870;-64
2023/12/12 03:09:59;;;;;;;;;;;;;;;19.90;46.91;100113.34;2100721;28;1792;-64
2023/12/12 03:11:01;;;;;;;;;;;;;;;19.91;46.78;100109.06;2098421;28;1969;-64
2023/12/12 03:12:03;;;;;;;;;;;;;;;19.91;46.83;100111.94;2097443;28;1987;-64
2023/12/12 03:13:04;;;;;;;;;;;;;;;19.91;46.87;100114.81;2101751;28;1614;-64
2023/12/12 03:14:06;;;;;;;;;;;;;;;19.93;46.82;100112.03;2100043;28;1710;-64
2023/12/12 03:15:07;;;;;;;;;;;;;;;19.93;46.79;100106.28;2097845;28;1705;-63
2023/12/12 03:16:08;;;;;;;;;;;;;;;19.93;46.92;100108.41;2100195;28;2128;-64
2023/12/12 03:17:10;;;;;;;;;;;;;;;19.92;46.77;100107.66;2095898;28;2049;-64
2023/12/12 03:18:11;;;;;;;;;;;;;;;19.92;46.83;100109.81;2099468;28;2278;-64
2023/12/12 03:19:13;;;;;;;;;;;;;;;19.93;46.87;100100.53;2099569;28;1946;-64
2023/12/12 03:20:14;;;;;;;;;;;;;;;19.92;46.95;100101.91;2101696;28;2306;-64
2023/12/12 03:21:16;;;;;;;;;;;;;;;19.92;47.01;100096.16;2100875;28;1905;-64
2023/12/12 03:22:17;;;;;;;;;;;;;;;19.92;46.80;100093.28;2099250;28;1613;-64
2023/12/12 03:23:19;;;;;;;;;;;;;;;19.94;46.79;100096.25;2101276;28;1658;-64
2023/12/12 03:24:20;;;;;;;;;;;;;;;19.94;46.96;100099.13;2100029;28;1682;-64
2023/12/12 03:25:22;;;;;;;;;;;;;;;19.94;46.76;100102.00;2097843;28;1934;-64
2023/12/12 03:26:23;;;;;;;;;;;;;;;19.95;46.94;100103.47;2097603;28;1935;-64
2023/12/12 03:27:24;;;;;;;;;;;;;;;19.95;46.88;100103.47;2099649;28;1946;-64
2023/12/12 03:28:26;;;;;;;;;;;;;;;19.95;46.88;100096.97;2099401;28;2064;-64
2023/12/12 03:29:27;;;;;;;;;;;;;;;19.94;46.98;100099.13;2099022;28;2103;-64
2023/12/12 03:30:33;;;;;;;;;;;;;;;19.95;46.89;100102.72;2102041;28;6340;-65
2023/12/12 03:31:34;;;;;;;;;;;;;;;19.94;46.91;100107.75;2098903;28;2003;-65
2023/12/12 03:32:35;;;;;;;;;;;;;;;19.94;46.89;100107.75;2098211;28;2202;-65
2023/12/12 03:33:37;;;;;;;;;;;;;;;19.94;47.03;100113.50;2103001;28;1586;-65
2023/12/12 03:34:39;;;;;;;;;;;;;;;19.94;47.01;100104.88;2101247;28;1748;-65
2023/12/12 03:35:40;;;;;;;;;;;;;;;19.93;47.08;100112.03;2097996;28;2001;-65
2023/12/12 03:36:42;;;;;;;;;;;;;;;19.93;47.12;100100.53;2097255;28;1824;-65
2023/12/12 03:37:43;;;;;;;;;;;;;;;19.93;47.11;100117.78;2102456;28;1970;-65
2023/12/12 03:38:45;;;;;;;;;;;;;;;19.94;47.10;100112.75;2102149;28;1891;-65
2023/12/12 03:39:46;;;;;;;;;;;;;;;19.94;47.05;100107.00;2100540;28;1891;-65
2023/12/12 03:40:47;;;;;;;;;;;;;;;19.94;47.21;100113.50;2100430;28;1824;-65
2023/12/12 03:41:49;;;;;;;;;;;;;;;19.93;47.22;100108.41;2102760;28;1652;-65
2023/12/12 03:42:50;;;;;;;;;;;;;;;19.92;47.20;100115.56;2100785;28;1513;-65
2023/12/12 03:43:52;;;;;;;;;;;;;;;19.92;47.16;100109.81;2101056;28;1877;-65
2023/12/12 03:44:53;;;;;;;;;;;;;;;19.93;47.25;100111.28;2100867;28;1570;-65
2023/12/12 03:45:55;;;;;;;;;;;;;;;19.92;46.99;100116.28;2098604;28;2284;-65
2023/12/12 03:46:56;;;;;;;;;;;;;;;19.92;47.12;100113.41;2096887;28;2015;-65
2023/12/12 03:47:57;;;;;;;;;;;;;;;19.93;46.90;100114.91;2099605;28;1895;-65
2023/12/12 03:48:59;;;;;;;;;;;;;;;19.91;47.08;100109.06;2100107;28;1574;-65
2023/12/12 03:50:00;;;;;;;;;;;;;;;19.92;47.16;100104.06;2097514;28;1510;-65
2023/12/12 03:51:02;;;;;;;;;;;;;;;19.93;46.96;100112.03;2100956;28;1969;-65
2023/12/12 03:52:03;;;;;;;;;;;;;;;19.93;47.18;100112.03;2099233;28;2235;-64
2023/12/12 03:53:05;;;;;;;;;;;;;;;19.93;47.28;100109.16;2097549;28;1917;-65
2023/12/12 03:54:06;;;;;;;;;;;;;;;19.94;47.27;100110.63;2097764;28;1997;-65
2023/12/12 03:55:08;;;;;;;;;;;;;;;19.95;47.19;100119.97;2097019;28;1990;-65
2023/12/12 03:56:09;;;;;;;;;;;;;;;19.95;47.34;100120.72;2098591;28;1998;-65
2023/12/12 03:57:11;;;;;;;;;;;;;;;19.96;47.29;100115.72;2098949;28;2032;-65
2023/12/12 03:58:12;;;;;;;;;;;;;;;19.96;47.16;100119.31;2101430;28;1792;-65
2023/12/12 03:59:14;;;;;;;;;;;;;;;19.96;47.14;100121.44;2099634;28;1733;-65
2023/12/12 04:00:15;;;;;;;;;;;;;;;19.97;47.12;100114.28;2101646;28;6048;-65
2023/12/12 04:01:17;;;;;;;;;;;;;;;19.98;47.27;100121.53;2099183;28;1954;-65
2023/12/12 04:02:19;;;;;;;;;;;;;;;19.98;47.17;100113.63;2100054;28;1985;-65
2023/12/12 04:03:20;;;;;;;;;;;;;;;19.99;47.11;100120.84;2099644;28;1633;-65
2023/12/12 04:04:22;;;;;;;;;;;;;;;20.00;47.31;100121.59;2101023;28;1519;-65
2023/12/12 04:05:23;;;;;;;;;;;;;;;20.00;47.22;100119.47;2100221;28;1693;-65
2023/12/12 04:06:25;;;;;;;;;;;;;;;20.00;47.19;100125.22;2097970;28;2185;-65
2023/12/12 04:07:26;;;;;;;;;;;;;;;20.01;47.16;100123.06;2099089;28;2251;-65
2023/12/12 04:08:28;;;;;;;;;;;;;;;20.01;47.32;100123.78;2101748;28;1799;-65
2023/12/12 04:09:29;;;;;;;;;;;;;;;20.01;47.25;100123.06;2100811;28;1459;-65
2023/12/12 04:10:31;;;;;;;;;;;;;;;20.00;47.38;100121.59;2100252;28;1877;-65
2023/12/12 04:11:32;;;;;;;;;;;;;;;20.01;47.22;100123.06;2098369;28;1598;-65
2023/12/12 04:12:34;;;;;;;;;;;;;;;20.00;47.37;100122.34;2098596;28;1761;-65
2023/12/12 04:13:35;;;;;;;;;;;;;;;20.00;47.26;100121.59;2101753;28;1613;-65
2023/12/12 04:14:37;;;;;;;;;;;;;;;20.00;47.29;100125.22;2096080;28;1978;-65
2023/12/12 04:15:38;;;;;;;;;;;;;;;20.00;47.32;100127.34;2099311;28;2006;-65
2023/12/12 04:16:39;;;;;;;;;;;;;;;20.00;47.42;100125.22;2100409;28;1690;-65
2023/12/12 04:17:42;;;;;;;;;;;;;;;20.01;47.49;100123.06;2102435;28;1797;-65
2023/12/12 04:18:44;;;;;;;;;;;;;;;20.01;47.43;100120.19;2100654;28;2079;-65
2023/12/12 04:19:45;;;;;;;;;;;;;;;20.02;47.40;100113.03;2099235;28;2017;-65
2023/12/12 04:20:47;;;;;;;;;;;;;;;20.02;47.30;100125.28;2100209;28;1957;-66
2023/12/12 04:21:48;;;;;;;;;;;;;;;20.01;47.44;100118.06;2096547;28;1931;-64
2023/12/12 04:22:49;;;;;;;;;;;;;;;20.02;47.34;100125.28;2101111;28;1992;-64
2023/12/12 04:23:51;;;;;;;;;;;;;;;20.04;47.33;100116.75;2099912;28;1812;-65
2023/12/12 04:24:52;;;;;;;;;;;;;;;20.04;47.40;100122.50;2102049;28;1977;-65
2023/12/12 04:25:54;;;;;;;;;;;;;;;20.05;47.45;100121.06;2098281;28;2002;-65
2023/12/12 04:26:55;;;;;;;;;;;;;;;20.05;47.50;100118.19;2102860;28;1851;-65
2023/12/12 04:28:00;;;;;;;;;;;;;;;20.05;47.44;100123.94;2100642;28;1586;-65
2023/12/12 04:29:03;;;;;;;;;;;;;;;20.05;47.38;100112.44;2095909;28;1945;-64
2023/12/12 04:30:05;;;;;;;;;;;;;;;20.06;47.37;100119.66;2101415;28;1940;-66
2023/12/12 04:31:06;;;;;;;;;;;;;;;20.07;47.50;100114.66;2099306;28;5878;-65
2023/12/12 04:32:08;;;;;;;;;;;;;;;20.07;47.40;100115.41;2099213;28;1929;-65
2023/12/12 04:33:10;;;;;;;;;;;;;;;20.07;47.23;100120.41;2100761;28;1918;-65
2023/12/12 04:34:11;;;;;;;;;;;;;;;20.07;47.29;100114.66;2098060;28;1880;-65
2023/12/12 04:35:13;;;;;;;;;;;;;;;20.07;47.36;100115.41;2098805;28;1963;-64
2023/12/12 04:36:14;;;;;;;;;;;;;;;20.06;47.32;100118.94;2099957;28;1899;-65
2023/12/12 04:37:16;;;;;;;;;;;;;;;20.07;47.44;100124.03;2100005;28;2048;-65
2023/12/12 04:38:18;;;;;;;;;;;;;;;20.08;47.45;100122.59;2102718;28;1739;-65
2023/12/12 04:39:19;;;;;;;;;;;;;;;20.11;47.37;100125.56;2100669;28;1992;-65
2023/12/12 04:40:21;;;;;;;;;;;;;;;20.09;47.51;100129.84;2099352;28;1538;-65
2023/12/12 04:41:22;;;;;;;;;;;;;;;20.08;47.32;100128.34;2097544;28;1567;-65
2023/12/12 04:42:24;;;;;;;;;;;;;;;20.07;47.49;100135.53;2102734;28;1605;-65
2023/12/12 04:43:25;;;;;;;;;;;;;;;20.08;47.54;100134.09;2099958;28;1907;-65
2023/12/12 04:44:26;;;;;;;;;;;;;;;20.08;47.43;100136.97;2099052;28;1954;-65
2023/12/12 04:45:28;;;;;;;;;;;;;;;20.08;47.29;100136.97;2097544;28;2078;-65
2023/12/12 04:46:29;;;;;;;;;;;;;;;20.07;47.51;100138.41;2098211;28;2032;-65
2023/12/12 04:47:31;;;;;;;;;;;;;;;20.06;47.50;100131.16;2098549;28;2059;-65
2023/12/12 04:48:33;;;;;;;;;;;;;;;20.07;47.40;100131.91;2098735;28;1958;-65
2023/12/12 04:49:34;;;;;;;;;;;;;;;20.05;47.48;100135.44;2101766;28;2032;-65
2023/12/12 04:50:36;;;;;;;;;;;;;;;20.06;47.54;100136.19;2101573;28;2002;-65
2023/12/12 04:51:38;;;;;;;;;;;;;;;20.08;47.54;100144.88;2099018;28;1907;-65
2023/12/12 04:52:39;;;;;;;;;;;;;;;20.08;47.40;100136.97;2098915;28;1944;-65
2023/12/12 04:53:40;;;;;;;;;;;;;;;20.09;47.52;100141.34;2099496;28;2074;-65
2023/12/12 04:54:42;;;;;;;;;;;;;;;20.08;47.63;100136.97;2098451;28;2000;-65
2023/12/12 04:55:43;;;;;;;;;;;;;;;20.09;47.41;100140.63;2101658;28;1879;-65
2023/12/12 04:56:45;;;;;;;;;;;;;;;20.10;47.42;100136.31;2097979;28;1944;-65
2023/12/12 04:57:46;;;;;;;;;;;;;;;20.10;47.44;100144.94;2099528;28;1984;-65
2023/12/12 04:58:47;;;;;;;;;;;;;;;20.11;47.45;100137.06;2098892;28;2039;-65
2023/12/12 04:59:49;;;;;;;;;;;;;;;20.11;47.38;100134.19;2099922;28;2023;-65
2023/12/12 05:00:50;;;;;;;;;;;;;;;20.12;47.43;100133.53;2096108;28;6148;-65
2023/12/12 05:01:52;;;;;;;;;;;;;;;20.13;47.57;100134.25;2095579;28;1997;-65
2023/12/12 05:02:53;;;;;;;;;;;;;;;20.13;47.54;100129.25;2094877;28;2058;-65
2023/12/12 05:03:55;;;;;;;;;;;;;;;20.13;47.40;100134.25;2097086;28;2012;-73
2023/12/12 05:04:56;;;;;;;;;;;;;;;20.14;47.41;100141.50;2098460;28;2056;-72
2023/12/12 05:05:58;;;;;;;;;;;;;;;20.13;47.56;100134.25;2098475;28;2006;-68
2023/12/12 05:06:59;;;;;;;;;;;;;;;20.13;47.42;100137.13;2097126;28;1946;-62
2023/12/12 05:08:01;;;;;;;;;;;;;;;20.14;47.40;100135.75;2100134;28;1658;-65
2023/12/12 05:09:03;;;;;;;;;;;;;;;20.13;47.55;100140.75;2098778;28;1988;-65
2023/12/12 05:10:05;;;;;;;;;;;;;;;20.12;47.41;100136.41;2100082;28;1987;-65
2023/12/12 05:11:06;;;;;;;;;;;;;;;20.12;47.50;100133.53;2101259;28;2350;-65
2023/12/12 05:12:08;;;;;;;;;;;;;;;20.13;47.65;100140.00;2098835;28;1898;-65
2023/12/12 05:13:10;;;;;;;;;;;;;;;20.12;47.51;100139.28;2100478;28;1891;-65
2023/12/12 05:14:11;;;;;;;;;;;;;;;20.13;47.47;100145.75;2097841;28;1893;-65
2023/12/12 05:15:12;;;;;;;;;;;;;;;20.12;47.47;100133.53;2099301;28;1993;-65
2023/12/12 05:16:14;;;;;;;;;;;;;;;20.11;47.49;100140.66;2098797;28;1966;-65
2023/12/12 05:17:31;;;;;;;;;;;;;;;20.10;47.60;100130.59;2100226;28;2222;-65
2023/12/12 05:18:33;;;;;;;;;;;;;;;20.11;47.52;100134.91;2098191;28;1921;-65
2023/12/12 05:19:35;;;;;;;;;;;;;;;20.11;47.49;100145.69;2098007;28;2430;-65
2023/12/12 05:20:36;;;;;;;;;;;;;;;20.13;47.38;100142.88;2100680;28;1988;-65